Aliso Viejo, California
Current Conditions -  °F | °C
As of 3:53 AM on Monday 24 Nov 2014 (Local Time) from KSNA Reporting Station
Clear Clear  
Wind Chill: 53°   Ceiling: Unl
Heat Index: 53°   Visibility: 10mi
Dew Point: 31°   Wind: 0mph
Humidity: 43%   Direction: NA
Pressure: 30.12"   Gusts: NA
Location:  33.57°N, 117.72°W
Report Text: KSNA 241153Z AUTO 00000KT 10SM CLR 12/M01 A3012 RMK AO2 SLP198 T01171006 10172 20117 58006 TSNO $
Loading
Personal Weather Stations






























Interactive Weather Map New forecast layout! Learn more

10-Day Weather Forecast

Advertisements
Track Severe Weather on mobile